createdAt,value
2018-04-11T00:01:46.492Z,19.43
2018-04-11T00:04:14.016Z,18.77
2018-04-11T00:06:41.567Z,19.20
2018-04-11T00:09:09.096Z,18.67
2018-04-11T00:11:36.733Z,20.03
2018-04-11T00:14:04.247Z,19.40
2018-04-11T00:16:31.858Z,19.70
2018-04-11T00:18:59.390Z,19.23
2018-04-11T00:21:26.906Z,20.03
2018-04-11T00:23:54.418Z,19.57
2018-04-11T00:26:21.952Z,20.83
2018-04-11T00:28:49.475Z,20.17
2018-04-11T00:31:17.098Z,20.40
2018-04-11T00:33:44.636Z,20.00
2018-04-11T00:36:12.159Z,20.23
2018-04-11T00:38:39.675Z,19.33
2018-04-11T00:41:07.187Z,21.17
2018-04-11T00:43:34.807Z,21.37
2018-04-11T00:46:02.375Z,21.90
2018-04-11T00:48:29.894Z,21.93
2018-04-11T00:50:57.484Z,21.63
2018-04-11T00:53:27.667Z,22.17
2018-04-11T00:55:55.270Z,22.37
2018-04-11T00:58:22.782Z,22.93
2018-04-11T01:00:50.383Z,22.70
2018-04-11T01:03:17.949Z,22.33
2018-04-11T01:05:45.474Z,22.30
2018-04-11T01:08:13.031Z,22.80
2018-04-11T01:10:40.615Z,21.63
2018-04-11T01:13:08.171Z,23.50
2018-04-11T01:15:35.716Z,22.03
2018-04-11T01:18:03.316Z,23.27
2018-04-11T01:20:30.936Z,21.43
2018-04-11T01:22:58.532Z,22.63
2018-04-11T01:25:26.078Z,22.87
2018-04-11T01:27:53.651Z,22.10
2018-04-11T01:30:21.179Z,21.33
2018-04-11T01:32:48.702Z,23.13
2018-04-11T01:35:16.331Z,22.10
2018-04-11T01:37:43.878Z,21.23
2018-04-11T01:40:11.404Z,23.10
2018-04-11T01:42:38.941Z,22.10
2018-04-11T01:45:06.469Z,22.67
2018-04-11T01:47:33.995Z,22.50
2018-04-11T01:50:01.516Z,21.20
2018-04-11T01:52:29.030Z,22.50
2018-04-11T01:54:56.598Z,23.00
2018-04-11T01:57:24.170Z,22.17
2018-04-11T01:59:51.724Z,22.20
2018-04-11T02:02:19.243Z,24.27
2018-04-11T02:04:46.834Z,24.00
2018-04-11T02:07:14.365Z,22.83
2018-04-11T02:09:41.987Z,23.90
2018-04-11T02:12:09.496Z,24.53
2018-04-11T02:14:37.043Z,23.70
2018-04-11T02:17:04.634Z,23.57
2018-04-11T02:19:32.194Z,25.30
2018-04-11T02:21:59.764Z,24.60
2018-04-11T02:24:27.310Z,22.90
2018-04-11T02:26:54.847Z,24.37
2018-04-11T02:29:22.370Z,24.33
2018-04-11T02:31:50.010Z,25.10
2018-04-11T02:34:17.535Z,23.47
2018-04-11T02:36:45.083Z,23.87
2018-04-11T02:39:12.690Z,24.47
2018-04-11T02:41:40.251Z,24.30
2018-04-11T02:44:07.798Z,24.90
2018-04-11T02:46:35.372Z,26.07
2018-04-11T02:49:02.895Z,25.63
2018-04-11T02:51:30.485Z,25.33
2018-04-11T02:53:58.015Z,26.67
2018-04-11T02:56:25.541Z,25.77
2018-04-11T02:58:53.054Z,27.20
2018-04-11T03:01:20.595Z,27.40
2018-04-11T03:03:48.124Z,27.60
2018-04-11T03:06:15.675Z,27.63
2018-04-11T03:08:43.206Z,27.10
2018-04-11T03:11:10.764Z,28.00
2018-04-11T03:13:38.292Z,29.27
2018-04-11T03:16:05.820Z,28.47
2018-04-11T03:18:33.435Z,27.23
2018-04-11T03:21:01.002Z,27.03
2018-04-11T03:23:28.524Z,27.80
2018-04-11T03:25:56.051Z,29.53
2018-04-11T03:28:23.686Z,28.80
2018-04-11T03:30:51.211Z,29.23
2018-04-11T03:33:18.791Z,27.90
2018-04-11T03:35:46.319Z,29.23
2018-04-11T03:38:13.851Z,28.70
2018-04-11T03:40:41.471Z,27.27
2018-04-11T03:43:09.000Z,28.53
2018-04-11T03:45:36.638Z,28.63
2018-04-11T03:48:04.151Z,30.23
2018-04-11T03:50:31.683Z,28.77
2018-04-11T03:52:59.252Z,26.87
2018-04-11T03:55:26.843Z,28.53
2018-04-11T03:57:54.397Z,28.83
2018-04-11T04:00:21.968Z,27.20
2018-04-11T04:02:49.522Z,27.47
2018-04-11T04:05:17.087Z,27.40
2018-04-11T04:07:44.606Z,26.67
2018-04-11T04:10:12.207Z,26.47
2018-04-11T04:12:39.762Z,28.23
2018-04-11T04:15:19.295Z,28.63
2018-04-11T04:17:58.879Z,26.87
2018-04-11T04:20:36.438Z,26.27
2018-04-11T04:23:03.990Z,27.13
2018-04-11T04:25:31.532Z,26.17
2018-04-11T04:27:59.127Z,27.20
2018-04-11T04:30:26.634Z,29.10
2018-04-11T04:32:54.202Z,28.57
2018-04-11T04:35:21.805Z,27.80
2018-04-11T04:37:49.351Z,28.57
2018-04-11T04:40:16.883Z,27.70
2018-04-11T04:42:44.412Z,26.03
2018-04-11T04:45:11.942Z,28.77
2018-04-11T04:47:39.503Z,27.60
2018-04-11T04:50:07.063Z,26.97
2018-04-11T04:52:34.578Z,26.73
2018-04-11T04:55:02.183Z,28.27
2018-04-11T04:57:29.727Z,27.73
2018-04-11T04:59:57.268Z,27.83
2018-04-11T05:02:24.820Z,26.83
2018-04-11T05:04:52.423Z,27.17
2018-04-11T05:07:19.954Z,28.33
2018-04-11T05:09:47.472Z,25.40
2018-04-11T05:12:15.099Z,26.83
2018-04-11T05:14:42.665Z,26.63
2018-04-11T05:17:10.224Z,25.67
2018-04-11T05:19:37.783Z,27.90
2018-04-11T05:22:05.300Z,25.47
2018-04-11T05:24:32.859Z,26.27
2018-04-11T05:27:00.464Z,26.33
2018-04-11T05:29:27.978Z,26.93
2018-04-11T05:31:55.521Z,26.93
2018-04-11T05:34:23.144Z,25.73
2018-04-11T05:36:50.659Z,26.57
2018-04-11T05:39:18.263Z,27.00
2018-04-11T05:41:45.791Z,26.57
2018-04-11T05:44:13.383Z,26.10
2018-04-11T05:46:40.944Z,27.27
2018-04-11T05:49:08.458Z,26.07
2018-04-11T05:51:36.167Z,26.37
2018-04-11T05:54:03.697Z,27.20
2018-04-11T05:56:31.222Z,26.73
2018-04-11T05:58:58.833Z,26.43
2018-04-11T06:01:26.391Z,28.13
2018-04-11T06:03:53.950Z,27.80
2018-04-11T06:06:21.522Z,29.10
2018-04-11T06:08:49.055Z,26.60
2018-04-11T06:11:16.642Z,27.07
2018-04-11T06:13:44.190Z,26.30
2018-04-11T06:16:11.729Z,23.93
2018-04-11T06:18:39.322Z,25.33
2018-04-11T06:21:06.843Z,24.73
2018-04-11T06:23:34.412Z,24.87
2018-04-11T06:26:02.008Z,22.93
2018-04-11T06:28:29.552Z,24.60
2018-04-11T06:30:57.078Z,26.33
2018-04-11T06:33:24.646Z,24.17
2018-04-11T06:35:52.349Z,25.33
2018-04-11T06:38:19.876Z,23.80
2018-04-11T06:40:47.400Z,24.07
2018-04-11T06:43:14.979Z,23.20
2018-04-11T06:45:42.585Z,23.50
2018-04-11T06:48:10.116Z,23.23
2018-04-11T06:50:37.710Z,24.37
2018-04-11T06:53:05.236Z,24.17
2018-04-11T06:55:32.781Z,23.53
2018-04-11T06:58:00.311Z,23.90
2018-04-11T07:00:27.835Z,22.33
2018-04-11T07:02:55.365Z,24.23
2018-04-11T07:05:22.983Z,23.13
2018-04-11T07:07:50.631Z,22.17
2018-04-11T07:10:18.181Z,21.67
2018-04-11T07:12:45.752Z,22.37
2018-04-11T07:15:13.294Z,21.53
2018-04-11T07:17:40.823Z,20.90
2018-04-11T07:20:08.359Z,22.60
2018-04-11T07:22:35.896Z,21.03
2018-04-11T07:25:03.430Z,21.60
2018-04-11T07:27:30.968Z,21.27
2018-04-11T07:29:58.523Z,20.60
2018-04-11T07:32:26.115Z,20.00
2018-04-11T07:34:53.660Z,19.97
2018-04-11T07:37:21.245Z,20.93
2018-04-11T07:39:48.777Z,20.03
2018-04-11T07:42:16.392Z,20.07
2018-04-11T07:44:43.914Z,20.13
2018-04-11T07:47:11.492Z,17.63
2018-04-11T07:49:39.050Z,18.37
2018-04-11T07:52:06.576Z,18.33
2018-04-11T07:54:34.167Z,18.30
2018-04-11T07:57:01.726Z,18.93
2018-04-11T07:59:29.275Z,16.63
2018-04-11T08:01:56.823Z,16.67
2018-04-11T08:04:24.343Z,17.03
2018-04-11T08:06:51.869Z,17.10
2018-04-11T08:09:19.430Z,17.27
2018-04-11T08:11:46.990Z,17.17
2018-04-11T08:14:14.554Z,15.47
2018-04-11T08:16:42.076Z,16.63
2018-04-11T08:19:09.603Z,15.80
2018-04-11T08:21:37.344Z,15.47
2018-04-11T08:24:04.312Z,16.50
2018-04-11T08:26:31.837Z,15.60
2018-04-11T08:28:59.367Z,16.27
2018-04-11T08:31:26.907Z,15.70
2018-04-11T08:33:54.470Z,15.15
2018-04-11T08:36:22.077Z,15.40
2018-04-11T08:38:49.623Z,15.38
2018-04-11T08:41:17.147Z,15.35
2018-04-11T08:43:44.758Z,15.10
2018-04-11T08:46:12.293Z,15.20
2018-04-11T08:48:39.819Z,14.15
2018-04-11T08:51:07.347Z,13.15
2018-04-11T08:53:34.897Z,13.20
2018-04-11T08:56:02.446Z,12.73
2018-04-11T08:58:29.980Z,12.25
2018-04-11T09:00:57.590Z,11.90
2018-04-11T09:03:25.245Z,11.77
2018-04-11T09:05:52.897Z,12.00
2018-04-11T09:08:20.431Z,12.50
2018-04-11T09:10:48.042Z,12.05
2018-04-11T09:13:15.581Z,11.05
2018-04-11T09:15:43.149Z,11.32
2018-04-11T09:18:10.799Z,11.52
2018-04-11T09:20:38.327Z,11.32
2018-04-11T09:23:05.847Z,11.73
2018-04-11T09:25:33.481Z,11.07
2018-04-11T09:28:01.007Z,11.12
2018-04-11T09:30:28.602Z,11.65
2018-04-11T09:32:56.972Z,11.57
2018-04-11T09:35:24.546Z,10.70
2018-04-11T09:37:52.107Z,11.30
2018-04-11T09:40:19.631Z,10.10
2018-04-11T09:42:47.157Z,10.20
2018-04-11T09:45:14.771Z,10.23
2018-04-11T09:47:42.312Z,9.60
2018-04-11T09:50:09.828Z,9.20
2018-04-11T09:52:37.432Z,9.55
2018-04-11T09:55:05.013Z,8.95
2018-04-11T09:57:32.580Z,9.27
2018-04-11T10:00:00.111Z,8.35
2018-04-11T10:02:27.627Z,8.95
2018-04-11T10:04:55.250Z,9.80
2018-04-11T10:07:22.778Z,11.12
2018-04-11T10:09:50.312Z,11.52
2018-04-11T10:12:17.829Z,10.68
2018-04-11T10:14:45.368Z,9.90
2018-04-11T10:17:12.959Z,9.82
2018-04-11T10:19:40.523Z,9.52
2018-04-11T10:22:08.038Z,9.07
2018-04-11T10:24:35.598Z,9.55
2018-04-11T10:27:03.188Z,10.82
2018-04-11T10:29:30.751Z,11.57
2018-04-11T10:31:58.335Z,11.50
2018-04-11T10:34:25.867Z,11.93
2018-04-11T10:36:53.399Z,12.40
2018-04-11T10:39:20.932Z,13.32
2018-04-11T10:41:48.538Z,12.77
2018-04-11T10:44:16.110Z,14.68
2018-04-11T10:46:43.691Z,14.82
2018-04-11T10:49:11.215Z,14.80
2018-04-11T10:51:38.786Z,16.33
2018-04-11T10:54:06.366Z,15.60
2018-04-11T10:56:33.910Z,17.42
2018-04-11T10:59:01.472Z,17.40
2018-04-11T11:01:29.031Z,16.10
2018-04-11T11:03:56.600Z,15.53
2018-04-11T11:06:24.151Z,16.93
2018-04-11T11:08:51.699Z,18.40
2018-04-11T11:11:19.220Z,18.60
2018-04-11T11:13:46.740Z,20.33
2018-04-11T11:16:14.268Z,20.80
2018-04-11T11:18:41.820Z,20.20
2018-04-11T11:21:09.351Z,21.70
2018-04-11T11:23:36.870Z,21.17
2018-04-11T11:26:04.396Z,21.90
2018-04-11T11:28:31.990Z,22.73
2018-04-11T11:30:59.547Z,21.83
2018-04-11T11:33:27.072Z,21.73
2018-04-11T11:35:54.604Z,22.53
2018-04-11T11:38:22.140Z,22.60
2018-04-11T11:40:49.683Z,23.23
2018-04-11T11:43:17.323Z,23.93
2018-04-11T11:45:44.923Z,22.23
2018-04-11T11:48:12.447Z,22.90
2018-04-11T11:50:40.028Z,24.37
2018-04-11T11:53:07.543Z,23.97
2018-04-11T11:55:35.100Z,24.27
2018-04-11T11:58:02.620Z,26.10
2018-04-11T12:00:30.284Z,22.97
2018-04-11T12:02:57.815Z,26.13
2018-04-11T12:05:25.404Z,25.43
2018-04-11T12:07:52.926Z,26.13
2018-04-11T12:10:20.531Z,26.57
2018-04-11T12:12:48.167Z,26.57
2018-04-11T12:15:15.698Z,26.07
2018-04-11T12:17:43.305Z,27.20
2018-04-11T12:20:10.862Z,27.83
2018-04-11T12:22:38.412Z,28.03
2018-04-11T12:25:05.983Z,26.60
2018-04-11T12:27:33.541Z,26.83
2018-04-11T12:30:01.106Z,26.53
2018-04-11T12:32:28.636Z,27.23
2018-04-11T12:34:56.155Z,27.40
2018-04-11T12:37:23.682Z,27.97
2018-04-11T12:39:51.210Z,27.37
2018-04-11T12:42:18.735Z,26.17
2018-04-11T12:44:46.365Z,27.33
2018-04-11T12:47:13.891Z,27.97
2018-04-11T12:49:41.423Z,28.83
2018-04-11T12:52:09.041Z,29.00
2018-04-11T12:54:36.570Z,27.67
2018-04-11T12:57:04.165Z,27.87
2018-04-11T12:59:31.730Z,29.37
2018-04-11T13:01:59.259Z,29.87
2018-04-11T13:04:26.847Z,29.63
2018-04-11T13:06:54.401Z,30.60
2018-04-11T13:09:21.934Z,31.90
2018-04-11T13:11:49.460Z,29.10
2018-04-11T13:14:17.019Z,31.40
2018-04-11T13:16:44.631Z,29.10
2018-04-11T13:19:12.171Z,31.60
2018-04-11T13:21:39.721Z,30.80
2018-04-11T13:24:07.319Z,32.80
2018-04-11T13:26:34.871Z,32.17
2018-04-11T13:29:02.441Z,30.00
2018-04-11T13:31:30.006Z,31.20
2018-04-11T13:33:57.531Z,30.03
2018-04-11T13:36:25.051Z,32.57
2018-04-11T13:38:52.570Z,33.33
2018-04-11T13:41:20.135Z,33.40
2018-04-11T13:43:47.655Z,31.83
2018-04-11T13:46:15.271Z,31.37
2018-04-11T13:48:42.791Z,31.67
2018-04-11T13:51:10.326Z,30.23
2018-04-11T13:53:37.863Z,30.63
2018-04-11T13:56:05.380Z,30.50
2018-04-11T13:58:33.067Z,30.23
2018-04-11T14:01:00.609Z,33.07
2018-04-11T14:03:28.336Z,31.57
2018-04-11T14:05:55.871Z,31.03
2018-04-11T14:08:23.543Z,32.77
2018-04-11T14:10:51.035Z,28.27
2018-04-11T14:13:18.556Z,30.90
2018-04-11T14:15:46.075Z,30.03
2018-04-11T14:18:13.655Z,31.37
2018-04-11T14:20:41.176Z,31.27
2018-04-11T14:23:08.755Z,32.23
2018-04-11T14:25:36.280Z,29.33
2018-04-11T14:28:03.848Z,32.33
2018-04-11T14:30:31.416Z,31.73
2018-04-11T14:32:58.941Z,32.57
2018-04-11T14:35:26.527Z,32.73
2018-04-11T14:37:54.088Z,31.87
2018-04-11T14:40:21.617Z,31.23
2018-04-11T14:42:49.150Z,32.60
2018-04-11T14:45:16.664Z,32.67
2018-04-11T14:47:44.204Z,31.50
2018-04-11T14:50:11.726Z,30.27
2018-04-11T14:52:39.288Z,30.23
2018-04-11T14:55:06.813Z,30.40
2018-04-11T14:57:34.495Z,28.87
2018-04-11T15:00:02.104Z,30.33
2018-04-11T15:02:29.629Z,31.63
2018-04-11T15:04:57.143Z,31.23
2018-04-11T15:07:24.659Z,30.80
2018-04-11T15:09:52.295Z,29.67
2018-04-11T15:12:19.819Z,28.17
2018-04-11T15:14:47.429Z,28.23
2018-04-11T15:17:14.956Z,27.77
2018-04-11T15:19:42.502Z,26.87
2018-04-11T15:22:10.032Z,26.40
2018-04-11T15:24:37.670Z,25.27
2018-04-11T15:27:05.231Z,26.00
2018-04-11T15:29:32.791Z,27.10
2018-04-11T15:32:00.311Z,29.17
2018-04-11T15:34:27.876Z,28.03
2018-04-11T15:36:55.395Z,26.67
2018-04-11T15:39:22.915Z,27.53
2018-04-11T15:41:50.456Z,28.33
2018-04-11T15:44:18.020Z,26.83
2018-04-11T15:46:45.610Z,28.00
2018-04-11T15:49:13.135Z,28.43
2018-04-11T15:51:40.730Z,27.50
2018-04-11T15:54:08.275Z,28.07
2018-04-11T15:56:35.807Z,27.23
2018-04-11T15:59:03.339Z,29.17
2018-04-11T16:01:30.892Z,28.97
2018-04-11T16:03:58.432Z,29.43
2018-04-11T16:06:25.956Z,29.13
2018-04-11T16:08:53.534Z,28.60
2018-04-11T16:11:21.074Z,30.20
2018-04-11T16:13:48.640Z,28.63
2018-04-11T16:16:16.249Z,27.37
2018-04-11T16:18:43.876Z,30.80
2018-04-11T16:21:11.437Z,29.53
2018-04-11T16:23:38.962Z,28.83
2018-04-11T16:26:06.495Z,29.90
2018-04-11T16:28:34.029Z,29.83
2018-04-11T16:31:01.597Z,29.77
2018-04-11T16:33:29.254Z,29.27
2018-04-11T16:35:56.776Z,29.97
2018-04-11T16:38:24.301Z,26.47
2018-04-11T16:40:51.919Z,29.03
2018-04-11T16:43:19.496Z,26.77
2018-04-11T16:45:47.020Z,26.80
2018-04-11T16:48:14.609Z,28.00
2018-04-11T16:50:42.140Z,27.97
2018-04-11T16:53:09.665Z,28.00
2018-04-11T16:55:37.293Z,27.80
2018-04-11T16:58:04.839Z,26.87
2018-04-11T17:00:32.379Z,24.83
2018-04-11T17:02:59.894Z,26.43
2018-04-11T17:05:27.535Z,28.07
2018-04-11T17:07:55.080Z,26.80
2018-04-11T17:10:22.658Z,25.73
2018-04-11T17:12:50.180Z,27.30
2018-04-11T17:15:17.740Z,27.63
2018-04-11T17:17:45.287Z,27.03
2018-04-11T17:20:12.891Z,27.67
2018-04-11T17:22:52.348Z,27.23
2018-04-11T17:25:31.789Z,28.37
2018-04-11T17:28:11.295Z,26.80
2018-04-11T17:30:50.853Z,27.07
2018-04-11T17:33:18.379Z,25.87
2018-04-11T17:35:45.977Z,27.70
2018-04-11T17:38:13.491Z,28.07
2018-04-11T17:40:41.096Z,26.10
2018-04-11T17:43:08.651Z,27.03
2018-04-11T17:45:36.167Z,27.13
2018-04-11T17:48:03.694Z,26.53
2018-04-11T17:50:31.215Z,28.10
2018-04-11T17:52:58.796Z,26.43
2018-04-11T17:55:26.319Z,27.37
2018-04-11T17:57:53.839Z,27.87
2018-04-11T18:00:21.396Z,28.27
2018-04-11T18:02:49.020Z,28.70
2018-04-11T18:05:16.579Z,29.33
2018-04-11T18:07:44.108Z,27.83
2018-04-11T18:10:11.637Z,30.00
2018-04-11T18:12:39.172Z,31.00
2018-04-11T18:15:06.720Z,30.33
2018-04-11T18:17:34.296Z,31.53
2018-04-11T18:20:01.817Z,31.93
2018-04-11T18:22:29.343Z,29.93
2018-04-11T18:24:56.951Z,31.37
2018-04-11T18:27:24.528Z,30.83
2018-04-11T18:29:52.124Z,30.20
2018-04-11T18:32:19.652Z,31.50
2018-04-11T18:34:47.212Z,30.87
2018-04-11T18:37:14.768Z,31.27
2018-04-11T18:39:42.343Z,32.67
2018-04-11T18:42:09.931Z,32.37
2018-04-11T18:44:37.460Z,32.43
2018-04-11T18:47:05.116Z,31.27
2018-04-11T18:49:32.676Z,31.77
2018-04-11T18:52:00.199Z,30.80
2018-04-11T18:54:27.719Z,31.07
2018-04-11T18:56:55.249Z,31.53
2018-04-11T18:59:22.790Z,31.97
2018-04-11T19:01:50.317Z,32.70
2018-04-11T19:04:17.840Z,32.07
2018-04-11T19:06:45.494Z,32.50
2018-04-11T19:09:13.052Z,32.60
2018-04-11T19:11:40.568Z,31.63
2018-04-11T19:14:08.104Z,31.80
2018-04-11T19:16:35.647Z,32.33
2018-04-11T19:19:03.188Z,32.00
2018-04-11T19:21:30.708Z,32.63
2018-04-11T19:23:58.244Z,32.80
2018-04-11T19:26:25.788Z,33.00
2018-04-11T19:28:53.317Z,30.80
2018-04-11T19:31:20.875Z,33.37
2018-04-11T19:33:48.451Z,32.70
2018-04-11T19:36:16.009Z,32.83
2018-04-11T19:38:43.546Z,32.23
2018-04-11T19:41:11.132Z,33.63
2018-04-11T19:43:38.655Z,34.90
2018-04-11T19:46:06.217Z,32.33
2018-04-11T19:48:33.749Z,33.40
2018-04-11T19:51:01.321Z,33.67
2018-04-11T19:53:28.906Z,33.97
2018-04-11T19:55:56.478Z,32.67
2018-04-11T19:58:24.015Z,34.67
2018-04-11T20:00:51.611Z,33.17
2018-04-11T20:03:19.144Z,33.53
2018-04-11T20:05:46.659Z,33.93
2018-04-11T20:08:14.312Z,33.20
2018-04-11T20:10:41.907Z,33.27
2018-04-11T20:13:09.523Z,34.37
2018-04-11T20:15:37.042Z,33.10
2018-04-11T20:18:04.571Z,34.27
2018-04-11T20:20:32.138Z,33.50
2018-04-11T20:22:59.727Z,35.20
2018-04-11T20:25:27.244Z,33.90
2018-04-11T20:27:54.760Z,32.83
2018-04-11T20:30:22.300Z,33.00
2018-04-11T20:32:49.887Z,35.03
2018-04-11T20:35:17.436Z,32.87
2018-04-11T20:37:44.969Z,33.10
2018-04-11T20:40:12.573Z,35.17
2018-04-11T20:42:40.109Z,34.07
2018-04-11T20:45:07.719Z,32.47
2018-04-11T20:47:35.248Z,34.63
2018-04-11T20:50:02.920Z,31.70
2018-04-11T20:52:30.453Z,34.50
2018-04-11T20:54:58.038Z,33.03
2018-04-11T20:57:25.568Z,33.23
2018-04-11T20:59:53.157Z,34.97
2018-04-11T21:02:20.717Z,33.23
2018-04-11T21:04:48.278Z,32.90
2018-04-11T21:07:15.837Z,33.10
2018-04-11T21:09:43.352Z,32.67
2018-04-11T21:12:10.913Z,34.37
2018-04-11T21:14:38.447Z,33.33
2018-04-11T21:17:05.973Z,32.07
2018-04-11T21:19:33.641Z,33.10
2018-04-11T21:22:01.187Z,32.70
2018-04-11T21:24:28.742Z,32.50
2018-04-11T21:26:56.272Z,33.50
2018-04-11T21:29:23.836Z,34.00
2018-04-11T21:31:51.359Z,32.60
2018-04-11T21:34:18.895Z,31.90
2018-04-11T21:36:46.424Z,31.57
2018-04-11T21:39:13.999Z,32.07
2018-04-11T21:41:41.576Z,30.80
2018-04-11T21:44:09.135Z,32.90
2018-04-11T21:46:36.684Z,31.63
2018-04-11T21:49:04.212Z,31.83
2018-04-11T21:51:31.739Z,30.97
2018-04-11T21:53:59.269Z,30.63
2018-04-11T21:56:26.818Z,31.33
2018-04-11T21:58:54.378Z,31.57
2018-04-11T22:01:21.951Z,29.80
2018-04-11T22:03:49.500Z,30.70
2018-04-11T22:06:17.014Z,30.27
2018-04-11T22:08:44.562Z,31.17
2018-04-11T22:11:12.179Z,30.10
2018-04-11T22:13:39.718Z,29.47
2018-04-11T22:16:07.239Z,30.93
2018-04-11T22:18:34.794Z,30.70
2018-04-11T22:21:02.391Z,30.97
2018-04-11T22:23:29.948Z,30.30
2018-04-11T22:25:57.550Z,30.50
2018-04-11T22:28:25.067Z,31.97
2018-04-11T22:30:52.668Z,30.20
2018-04-11T22:33:20.200Z,30.40
2018-04-11T22:35:47.759Z,30.17
2018-04-11T22:38:15.280Z,30.33
2018-04-11T22:40:42.915Z,28.33
2018-04-11T22:43:10.436Z,29.77
2018-04-11T22:45:37.965Z,28.60
2018-04-11T22:48:05.591Z,29.37
2018-04-11T22:50:33.119Z,28.53
2018-04-11T22:53:00.708Z,29.33
2018-04-11T22:55:28.231Z,28.97
2018-04-11T22:57:55.764Z,28.20
2018-04-11T23:00:23.289Z,27.87
2018-04-11T23:02:50.811Z,28.37
2018-04-11T23:05:18.348Z,27.60
2018-04-11T23:07:45.877Z,28.57
2018-04-11T23:10:13.400Z,28.07
2018-04-11T23:12:40.943Z,27.47
2018-04-11T23:15:08.508Z,27.63
2018-04-11T23:17:36.076Z,28.77
2018-04-11T23:20:03.616Z,28.63
2018-04-11T23:22:31.159Z,26.83
2018-04-11T23:24:58.687Z,29.20
2018-04-11T23:27:26.216Z,28.50
2018-04-11T23:29:53.763Z,28.30
2018-04-11T23:32:22.527Z,28.33
2018-04-11T23:34:50.053Z,25.70
2018-04-11T23:37:17.599Z,27.90
2018-04-11T23:39:45.179Z,24.77
2018-04-11T23:42:12.739Z,28.10
2018-04-11T23:44:40.251Z,25.87
2018-04-11T23:47:07.846Z,25.93
2018-04-11T23:49:35.413Z,26.13
2018-04-11T23:52:02.931Z,28.07
2018-04-11T23:54:30.460Z,28.43
2018-04-11T23:56:58.092Z,27.33
2018-04-11T23:59:25.644Z,27.27
